createdAt,value
2017-12-13T00:00:21.204Z,2.70
2017-12-13T00:02:50.336Z,2.70
2017-12-13T00:05:19.298Z,2.70
2017-12-13T00:07:47.576Z,2.70
2017-12-13T00:10:15.809Z,2.80
2017-12-13T00:12:44.917Z,3.00
2017-12-13T00:15:14.021Z,3.00
2017-12-13T00:17:42.290Z,3.00
2017-12-13T00:20:10.563Z,3.00
2017-12-13T00:22:38.854Z,3.00
2017-12-13T00:25:07.133Z,3.00
2017-12-13T00:27:37.076Z,2.90
2017-12-13T00:30:05.303Z,2.90
2017-12-13T00:32:34.339Z,3.00
2017-12-13T00:35:02.571Z,3.00
2017-12-13T00:37:31.614Z,3.10
2017-12-13T00:39:59.853Z,3.00
2017-12-13T00:42:28.864Z,3.10
2017-12-13T00:44:57.146Z,3.10
2017-12-13T00:47:25.391Z,3.10
2017-12-13T00:49:53.645Z,3.00
2017-12-13T00:52:22.724Z,3.10
2017-12-13T00:54:50.962Z,3.10
2017-12-13T00:57:19.988Z,3.10
2017-12-13T00:59:48.222Z,3.10
2017-12-13T01:02:16.503Z,3.20
2017-12-13T01:04:44.780Z,3.30
2017-12-13T01:07:13.804Z,3.20
2017-12-13T01:09:42.054Z,3.20
2017-12-13T01:12:11.084Z,3.10
2017-12-13T01:14:39.406Z,3.10
2017-12-13T01:17:07.645Z,3.10
2017-12-13T01:19:35.961Z,3.10
2017-12-13T01:22:04.159Z,3.00
2017-12-13T01:24:33.200Z,2.90
2017-12-13T01:27:01.481Z,2.90
2017-12-13T01:29:29.738Z,2.90
2017-12-13T01:31:57.985Z,3.00
2017-12-13T01:34:27.053Z,2.90
2017-12-13T01:36:55.323Z,3.00
2017-12-13T01:39:23.594Z,3.00
2017-12-13T01:41:52.564Z,3.00
2017-12-13T01:44:20.797Z,3.00
2017-12-13T01:46:49.818Z,2.90
2017-12-13T01:49:18.058Z,2.90
2017-12-13T01:51:46.361Z,2.90
2017-12-13T01:54:14.625Z,2.80
2017-12-13T01:56:43.631Z,2.70
2017-12-13T01:59:12.301Z,2.70
2017-12-13T02:01:40.521Z,2.70
2017-12-13T02:04:08.849Z,2.60
2017-12-13T02:06:37.058Z,2.50
2017-12-13T02:09:05.370Z,2.50
2017-12-13T02:11:33.611Z,2.50
2017-12-13T02:14:01.958Z,2.40
2017-12-13T02:16:30.224Z,2.30
2017-12-13T02:18:58.463Z,2.30
2017-12-13T02:21:26.721Z,2.30
2017-12-13T02:23:55.008Z,2.20
2017-12-13T02:26:23.290Z,2.20
2017-12-13T02:28:51.554Z,2.20
2017-12-13T02:31:19.817Z,2.20
2017-12-13T02:33:48.830Z,2.10
2017-12-13T02:36:17.104Z,2.10
2017-12-13T02:38:45.371Z,2.00
2017-12-13T02:41:13.661Z,2.00
2017-12-13T02:43:43.154Z,1.90
2017-12-13T02:46:12.154Z,1.90
2017-12-13T02:48:41.003Z,1.90
2017-12-13T02:51:09.321Z,1.80
2017-12-13T02:53:37.589Z,1.80
2017-12-13T02:56:05.891Z,1.80
2017-12-13T02:58:34.211Z,1.80
2017-12-13T03:01:02.461Z,1.80
2017-12-13T03:03:30.756Z,1.80
2017-12-13T03:05:59.023Z,1.80
2017-12-13T03:08:27.314Z,1.80
2017-12-13T03:10:55.581Z,1.80
2017-12-13T03:13:23.826Z,1.70
2017-12-13T03:15:52.095Z,1.70
2017-12-13T03:18:20.398Z,1.80
2017-12-13T03:20:48.652Z,1.80
2017-12-13T03:23:17.673Z,1.80
2017-12-13T03:25:46.306Z,1.80
2017-12-13T03:28:14.527Z,1.70
2017-12-13T03:30:42.788Z,1.80
2017-12-13T03:33:11.038Z,1.70
2017-12-13T03:35:40.089Z,1.80
2017-12-13T03:38:08.320Z,1.70
2017-12-13T03:40:37.352Z,1.70
2017-12-13T03:43:05.629Z,1.70
2017-12-13T03:45:33.890Z,1.70
2017-12-13T03:48:02.190Z,1.80
2017-12-13T03:50:30.444Z,1.80
2017-12-13T03:52:59.563Z,1.80
2017-12-13T03:55:27.807Z,1.90
2017-12-13T03:57:56.807Z,2.00
2017-12-13T04:00:25.856Z,2.00
2017-12-13T04:02:54.111Z,2.00
2017-12-13T04:05:22.414Z,2.00
2017-12-13T04:07:50.661Z,2.00
2017-12-13T04:10:18.942Z,1.90
2017-12-13T04:12:47.244Z,1.90
2017-12-13T04:15:15.477Z,1.90
2017-12-13T04:17:43.787Z,1.90
2017-12-13T04:20:12.049Z,1.90
2017-12-13T04:22:40.291Z,1.90
2017-12-13T04:25:08.562Z,1.90
2017-12-13T04:27:37.595Z,1.90
2017-12-13T04:30:05.851Z,1.80
2017-12-13T04:32:34.856Z,1.90
2017-12-13T04:35:03.095Z,1.90
2017-12-13T04:37:32.270Z,1.90
2017-12-13T04:40:00.554Z,1.90
2017-12-13T04:42:28.789Z,1.90
2017-12-13T04:44:57.062Z,1.90
2017-12-13T04:47:25.344Z,1.90
2017-12-13T04:49:53.596Z,1.90
2017-12-13T04:52:22.627Z,2.00
2017-12-13T04:54:51.233Z,2.00
2017-12-13T04:57:19.489Z,2.00
2017-12-13T04:59:49.325Z,2.10
2017-12-13T05:02:17.588Z,2.10
2017-12-13T05:04:45.836Z,2.10
2017-12-13T05:07:14.083Z,2.10
2017-12-13T05:09:42.332Z,2.10
2017-12-13T05:12:10.594Z,2.10
2017-12-13T05:14:38.882Z,2.10
2017-12-13T05:17:07.149Z,2.10
2017-12-13T05:19:35.386Z,2.10
2017-12-13T05:22:03.661Z,2.10
2017-12-13T05:24:32.724Z,2.10
2017-12-13T05:27:00.974Z,2.00
2017-12-13T05:29:29.219Z,2.10
2017-12-13T05:31:58.253Z,2.00
2017-12-13T05:34:26.490Z,2.00
2017-12-13T05:36:54.749Z,2.10
2017-12-13T05:39:23.752Z,2.10
2017-12-13T05:41:52.831Z,2.10
2017-12-13T05:44:21.073Z,2.20
2017-12-13T05:46:49.320Z,2.20
2017-12-13T05:49:17.589Z,2.20
2017-12-13T05:51:45.871Z,2.20
2017-12-13T05:54:14.104Z,2.20
2017-12-13T05:56:42.390Z,2.30
2017-12-13T05:59:11.256Z,2.30
2017-12-13T06:01:39.497Z,2.30
2017-12-13T06:04:08.513Z,2.40
2017-12-13T06:06:36.762Z,2.30
2017-12-13T06:09:05.740Z,2.40
2017-12-13T06:11:34.018Z,2.30
2017-12-13T06:14:03.050Z,2.50
2017-12-13T06:16:31.313Z,2.50
2017-12-13T06:18:59.571Z,2.50
2017-12-13T06:21:28.615Z,2.50
2017-12-13T06:23:56.843Z,2.50
2017-12-13T06:26:25.873Z,2.60
2017-12-13T06:28:54.137Z,2.60
2017-12-13T06:31:22.404Z,2.60
2017-12-13T06:33:50.693Z,2.60
2017-12-13T06:36:19.719Z,2.50
2017-12-13T06:38:47.962Z,2.50
2017-12-13T06:41:16.234Z,2.60
2017-12-13T06:43:44.524Z,2.60
2017-12-13T06:46:12.791Z,2.60
2017-12-13T06:48:41.926Z,2.60
2017-12-13T06:51:10.192Z,2.60
2017-12-13T06:53:38.441Z,2.60
2017-12-13T06:56:06.713Z,2.60
2017-12-13T06:58:35.726Z,2.70
2017-12-13T07:01:03.962Z,2.70
2017-12-13T07:03:32.175Z,2.60
2017-12-13T07:06:00.430Z,2.70
2017-12-13T07:08:29.444Z,2.80
2017-12-13T07:10:57.696Z,2.80
2017-12-13T07:13:26.734Z,2.80
2017-12-13T07:15:55.007Z,2.70
2017-12-13T07:18:23.267Z,2.80
2017-12-13T07:20:53.303Z,2.80
2017-12-13T07:23:21.685Z,2.80
2017-12-13T07:25:50.990Z,2.80
2017-12-13T07:28:19.262Z,2.80
2017-12-13T07:30:47.607Z,2.80
2017-12-13T07:33:15.842Z,2.80
2017-12-13T07:35:44.150Z,2.90
2017-12-13T07:38:12.392Z,2.90
2017-12-13T07:40:40.659Z,3.00
2017-12-13T07:43:08.936Z,3.00
2017-12-13T07:45:37.182Z,3.10
2017-12-13T07:48:05.550Z,3.10
2017-12-13T07:50:33.775Z,3.10
2017-12-13T07:59:48.370Z,3.20
2017-12-13T08:02:16.617Z,3.00
2017-12-13T08:04:45.724Z,3.10
2017-12-13T08:07:14.018Z,3.10
2017-12-13T08:09:42.302Z,3.10
2017-12-13T08:12:10.565Z,3.20
2017-12-13T08:14:38.841Z,3.20
2017-12-13T08:17:07.106Z,3.20
2017-12-13T08:19:35.367Z,3.30
2017-12-13T08:22:03.680Z,3.30
2017-12-13T08:24:31.954Z,3.30
2017-12-13T08:27:00.978Z,3.50
2017-12-13T08:29:29.218Z,3.50
2017-12-13T08:31:57.502Z,3.50
2017-12-13T08:34:25.759Z,3.60
2017-12-13T08:36:54.818Z,3.60
2017-12-13T08:39:23.063Z,3.60
2017-12-13T08:41:51.304Z,3.70
2017-12-13T08:44:20.331Z,3.70
2017-12-13T08:46:48.585Z,3.70
2017-12-13T08:49:16.917Z,3.80
2017-12-13T08:51:45.976Z,3.80
2017-12-13T08:54:14.313Z,3.80
2017-12-13T08:56:42.567Z,3.80
2017-12-13T08:59:10.825Z,4.10
2017-12-13T09:01:39.218Z,4.00
2017-12-13T09:04:07.507Z,3.90
2017-12-13T09:06:35.769Z,3.90
2017-12-13T09:09:05.562Z,4.00
2017-12-13T09:11:33.864Z,3.90
2017-12-13T09:14:02.104Z,3.90
2017-12-13T09:16:31.129Z,4.00
2017-12-13T09:18:59.343Z,3.90
2017-12-13T09:21:27.625Z,4.00
2017-12-13T09:23:55.862Z,4.10
2017-12-13T09:26:24.123Z,4.10
2017-12-13T09:28:52.371Z,4.10
2017-12-13T09:31:21.361Z,4.10
2017-12-13T09:33:49.647Z,4.00
2017-12-13T09:36:18.649Z,4.20
2017-12-13T09:38:50.908Z,4.20
2017-12-13T09:41:19.955Z,4.20
2017-12-13T09:43:48.233Z,4.20
2017-12-13T09:46:17.378Z,4.30
2017-12-13T09:48:45.642Z,4.30
2017-12-13T09:51:14.705Z,4.40
2017-12-13T09:53:42.930Z,4.40
2017-12-13T09:56:11.196Z,4.50
2017-12-13T09:58:40.230Z,4.50
2017-12-13T10:01:08.488Z,4.50
2017-12-13T10:03:36.753Z,4.50
2017-12-13T10:06:05.843Z,4.40
2017-12-13T10:08:34.118Z,4.40
2017-12-13T10:11:02.365Z,4.40
2017-12-13T10:13:30.591Z,4.40
2017-12-13T10:15:58.862Z,4.30
2017-12-13T10:18:27.115Z,4.30
2017-12-13T10:20:55.363Z,4.20
2017-12-13T10:23:23.982Z,4.10
2017-12-13T10:25:52.245Z,4.10
2017-12-13T10:28:20.498Z,4.10
2017-12-13T10:30:48.770Z,4.10
2017-12-13T10:33:17.039Z,4.00
2017-12-13T10:35:45.294Z,4.10
2017-12-13T10:38:13.603Z,4.10
2017-12-13T10:40:41.879Z,4.10
2017-12-13T10:43:10.967Z,4.00
2017-12-13T10:45:39.202Z,4.10
2017-12-13T10:48:08.265Z,3.90
2017-12-13T10:50:36.739Z,3.90
2017-12-13T10:53:04.966Z,3.90
2017-12-13T10:55:33.970Z,3.90
2017-12-13T10:58:02.230Z,3.90
2017-12-13T11:00:31.248Z,3.80
2017-12-13T11:02:59.527Z,3.80
2017-12-13T11:05:28.789Z,3.80
2017-12-13T11:07:57.060Z,3.70
2017-12-13T11:10:27.466Z,3.60
2017-12-13T11:12:55.996Z,3.60
2017-12-13T11:15:24.243Z,3.60
2017-12-13T11:17:53.667Z,3.60
2017-12-13T11:20:22.378Z,3.60
2017-12-13T11:22:50.629Z,3.60
2017-12-13T11:25:20.559Z,3.70
2017-12-13T11:27:49.948Z,3.70
2017-12-13T11:30:25.097Z,3.70
2017-12-13T11:32:53.353Z,3.70
2017-12-13T11:35:24.703Z,3.80
2017-12-13T11:37:52.943Z,3.80
2017-12-13T11:40:21.245Z,3.80
2017-12-13T11:42:49.498Z,3.80
2017-12-13T11:45:17.761Z,3.80
2017-12-13T11:47:46.379Z,3.90
2017-12-13T11:50:14.610Z,3.80
2017-12-13T11:52:43.656Z,3.80
2017-12-13T11:55:11.907Z,3.80
2017-12-13T11:57:40.158Z,3.80
2017-12-13T12:00:08.450Z,3.80
2017-12-13T12:02:37.448Z,3.80
2017-12-13T12:05:05.710Z,3.80
2017-12-13T12:07:34.723Z,3.90
2017-12-13T12:10:02.951Z,3.90
2017-12-13T12:12:31.205Z,3.80
2017-12-13T12:15:00.989Z,3.80
2017-12-13T12:17:29.273Z,3.70
2017-12-13T12:19:58.663Z,3.80
2017-12-13T12:22:26.996Z,3.70
2017-12-13T12:24:55.212Z,3.80
2017-12-13T12:27:23.507Z,3.80
2017-12-13T12:29:51.784Z,3.80
2017-12-13T12:32:20.054Z,3.80
2017-12-13T12:34:48.326Z,3.70
2017-12-13T12:37:16.580Z,3.80
2017-12-13T12:39:46.032Z,3.80
2017-12-13T12:42:14.271Z,3.80
2017-12-13T12:44:43.261Z,3.80
2017-12-13T12:47:12.358Z,3.80
2017-12-13T12:49:41.409Z,3.80
2017-12-13T12:52:10.360Z,3.80
2017-12-13T12:54:39.536Z,3.80
2017-12-13T12:57:07.792Z,3.80
2017-12-13T12:59:36.029Z,3.80
2017-12-13T13:02:04.269Z,3.80
2017-12-13T13:04:33.304Z,3.90
2017-12-13T13:07:01.572Z,3.90
2017-12-13T13:09:30.588Z,3.90
2017-12-13T13:11:58.865Z,3.90
2017-12-13T13:14:27.112Z,3.90
2017-12-13T13:16:56.139Z,3.90
2017-12-13T13:19:24.912Z,3.90
2017-12-13T13:21:53.275Z,3.90
2017-12-13T13:24:21.855Z,3.90
2017-12-13T13:26:50.867Z,3.90
2017-12-13T13:29:20.024Z,4.00
2017-12-13T13:31:48.275Z,4.00
2017-12-13T13:34:16.526Z,4.00
2017-12-13T13:36:44.789Z,3.90
2017-12-13T13:39:13.054Z,3.90
2017-12-13T13:41:42.179Z,3.90
2017-12-13T13:44:10.528Z,4.00
2017-12-13T13:46:38.775Z,3.90
2017-12-13T13:49:08.676Z,3.90
2017-12-13T13:51:39.877Z,3.90
2017-12-13T13:54:08.221Z,3.90
2017-12-13T13:56:36.486Z,4.00
2017-12-13T13:59:04.983Z,3.90
2017-12-13T14:01:33.534Z,4.00
2017-12-13T14:04:01.772Z,4.00
2017-12-13T14:06:30.757Z,4.00
2017-12-13T14:08:59.226Z,4.00
2017-12-13T14:11:27.466Z,4.00
2017-12-13T14:13:55.776Z,3.90
2017-12-13T14:16:24.040Z,3.90
2017-12-13T14:18:52.876Z,4.00
2017-12-13T14:21:21.164Z,4.00
2017-12-13T14:23:49.469Z,4.00
2017-12-13T14:26:17.752Z,3.90
2017-12-13T14:28:46.021Z,3.90
2017-12-13T14:31:14.358Z,3.80
2017-12-13T14:33:44.052Z,3.70
2017-12-13T14:36:12.322Z,3.70
2017-12-13T14:38:41.353Z,3.70
2017-12-13T14:41:09.643Z,3.70
2017-12-13T14:43:37.886Z,3.60
2017-12-13T14:46:06.901Z,3.60
2017-12-13T14:48:35.204Z,3.60
2017-12-13T14:51:03.453Z,3.50
2017-12-13T14:53:32.625Z,3.50
2017-12-13T14:56:01.704Z,3.50
2017-12-13T14:58:30.779Z,3.50
2017-12-13T15:00:59.124Z,3.50
2017-12-13T15:03:28.153Z,3.50
2017-12-13T15:05:56.866Z,3.50
2017-12-13T15:08:25.720Z,3.40
2017-12-13T15:10:53.966Z,3.40
2017-12-13T15:13:23.134Z,3.40
2017-12-13T15:15:51.414Z,3.40
2017-12-13T15:18:19.681Z,3.40
2017-12-13T15:20:47.957Z,3.40
2017-12-13T15:23:16.208Z,3.40
2017-12-13T15:25:44.572Z,3.40
2017-12-13T15:28:12.901Z,3.30
2017-12-13T15:30:41.485Z,3.30
2017-12-13T15:33:09.721Z,3.20
2017-12-13T15:35:37.980Z,3.30
2017-12-13T15:38:06.300Z,3.30
2017-12-13T15:40:34.681Z,3.20
2017-12-13T15:43:02.979Z,3.20
2017-12-13T15:45:31.327Z,3.30
2017-12-13T15:47:59.551Z,3.30
2017-12-13T15:50:27.838Z,3.30
2017-12-13T15:52:56.133Z,3.30
2017-12-13T15:55:24.386Z,3.30
2017-12-13T15:57:53.674Z,3.40
2017-12-13T16:00:21.963Z,3.40
2017-12-13T16:02:50.282Z,3.40
2017-12-13T16:05:18.580Z,3.40
2017-12-13T16:07:47.655Z,3.40
2017-12-13T16:10:15.950Z,3.30
2017-12-13T16:12:44.187Z,3.40
2017-12-13T16:15:12.480Z,3.40
2017-12-13T16:17:40.748Z,3.30
2017-12-13T16:20:09.031Z,3.40
2017-12-13T16:22:38.035Z,3.30
2017-12-13T16:25:07.167Z,3.30
2017-12-13T16:27:35.476Z,3.40
2017-12-13T16:30:03.772Z,3.30
2017-12-13T16:32:32.134Z,3.40
2017-12-13T16:35:00.477Z,3.40
2017-12-13T16:37:29.528Z,3.40
2017-12-13T16:39:58.582Z,3.40
2017-12-13T16:42:27.533Z,3.40
2017-12-13T16:44:55.767Z,3.40
2017-12-13T16:47:24.436Z,3.40
2017-12-13T16:49:52.693Z,3.40
2017-12-13T16:52:20.951Z,3.50
2017-12-13T16:54:49.207Z,3.50
2017-12-13T16:57:17.499Z,3.50
2017-12-13T16:59:46.483Z,3.60
2017-12-13T17:02:14.794Z,3.60
2017-12-13T17:04:43.084Z,3.60
2017-12-13T17:07:11.379Z,3.60
2017-12-13T17:09:39.719Z,3.60
2017-12-13T17:12:08.000Z,3.60
2017-12-13T17:14:36.285Z,3.60
2017-12-13T17:17:04.546Z,3.60
2017-12-13T17:19:32.869Z,3.60
2017-12-13T17:22:01.198Z,3.50
2017-12-13T17:24:29.775Z,3.50
2017-12-13T17:26:58.039Z,3.60
2017-12-13T17:29:26.335Z,3.60
2017-12-13T17:31:54.601Z,3.60
2017-12-13T17:34:24.003Z,3.60
2017-12-13T17:36:52.328Z,3.60
2017-12-13T17:39:24.564Z,3.60
2017-12-13T17:41:53.609Z,3.60
2017-12-13T17:44:21.892Z,3.60
2017-12-13T17:46:50.182Z,3.60
2017-12-13T17:49:18.441Z,3.60
2017-12-13T17:51:46.722Z,3.60
2017-12-13T17:54:15.004Z,3.70
2017-12-13T17:56:44.097Z,3.70
2017-12-13T17:59:12.349Z,3.70
2017-12-13T18:01:40.615Z,3.70
2017-12-13T18:04:08.959Z,3.70
2017-12-13T18:06:37.276Z,3.70
2017-12-13T18:09:06.337Z,3.80
2017-12-13T18:11:34.614Z,3.80
2017-12-13T18:14:03.615Z,3.80
2017-12-13T18:16:32.182Z,3.80
2017-12-13T18:19:01.227Z,3.90
2017-12-13T18:21:29.524Z,3.90
2017-12-13T18:23:57.769Z,3.80
2017-12-13T18:26:26.055Z,3.80
2017-12-13T18:28:54.375Z,3.80
2017-12-13T18:31:22.629Z,3.80
2017-12-13T18:33:50.911Z,3.80
2017-12-13T18:36:19.128Z,3.80
2017-12-13T18:38:47.475Z,3.80
2017-12-13T18:41:16.527Z,3.70
2017-12-13T18:43:44.851Z,3.70
2017-12-13T18:46:13.572Z,3.70
2017-12-13T18:48:41.885Z,3.70
2017-12-13T18:51:10.309Z,3.70
2017-12-13T18:53:38.563Z,3.70
2017-12-13T18:56:06.862Z,3.70
2017-12-13T18:58:35.946Z,3.80
2017-12-13T19:01:04.599Z,3.80
2017-12-13T19:03:32.969Z,3.80
2017-12-13T19:06:01.259Z,3.80
2017-12-13T19:08:29.519Z,3.90
2017-12-13T19:10:57.822Z,3.90
2017-12-13T19:13:26.108Z,3.90
2017-12-13T19:15:55.220Z,3.90
2017-12-13T19:18:23.474Z,3.90
2017-12-13T19:20:51.745Z,3.90
2017-12-13T19:23:20.110Z,3.90
2017-12-13T19:25:48.374Z,3.90
2017-12-13T19:28:16.756Z,3.90
2017-12-13T19:30:45.906Z,3.90
2017-12-13T19:33:14.196Z,3.90
2017-12-13T19:35:42.473Z,3.90
2017-12-13T19:38:10.793Z,3.90
2017-12-13T19:40:39.158Z,3.90
2017-12-13T19:43:07.471Z,3.90
2017-12-13T19:45:35.725Z,3.90
2017-12-13T19:48:04.954Z,3.90
2017-12-13T19:50:33.198Z,3.90
2017-12-13T19:53:01.738Z,4.00
2017-12-13T19:55:29.969Z,4.00
2017-12-13T19:57:58.348Z,4.00
2017-12-13T20:00:26.608Z,4.00
2017-12-13T20:02:54.916Z,4.00
2017-12-13T20:05:23.215Z,4.10
2017-12-13T20:07:51.533Z,4.10
2017-12-13T20:10:19.819Z,4.10
2017-12-13T20:12:48.853Z,4.10
2017-12-13T20:15:17.154Z,4.10
2017-12-13T20:17:46.569Z,4.20
2017-12-13T20:20:16.074Z,4.20
2017-12-13T20:22:44.347Z,4.20
2017-12-13T20:25:12.625Z,4.30
2017-12-13T20:27:41.507Z,4.30
2017-12-13T20:30:09.920Z,4.30
2017-12-13T20:32:38.956Z,4.40
2017-12-13T20:35:07.520Z,4.40
2017-12-13T20:37:35.801Z,4.40
2017-12-13T20:40:04.179Z,4.40
2017-12-13T20:42:33.439Z,4.30
2017-12-13T20:45:01.683Z,4.30
2017-12-13T20:47:29.996Z,4.30
2017-12-13T20:49:59.015Z,4.20
2017-12-13T20:52:27.332Z,4.20
2017-12-13T20:54:55.870Z,4.20
2017-12-13T20:57:24.157Z,4.10
2017-12-13T20:59:53.354Z,4.10
2017-12-13T21:02:21.565Z,4.10
2017-12-13T21:04:50.639Z,4.10
2017-12-13T21:07:19.055Z,4.10
2017-12-13T21:09:47.316Z,4.10
2017-12-13T21:12:15.590Z,4.10
2017-12-13T21:14:43.869Z,4.10
2017-12-13T21:17:12.165Z,4.10
2017-12-13T21:19:40.467Z,4.10
2017-12-13T21:22:08.756Z,4.10
2017-12-13T21:24:37.009Z,4.10
2017-12-13T21:27:05.295Z,4.10
2017-12-13T21:29:33.610Z,4.10
2017-12-13T21:32:03.202Z,4.10
2017-12-13T21:34:32.225Z,4.10
2017-12-13T21:37:01.473Z,4.20
2017-12-13T21:39:29.720Z,4.10
2017-12-13T21:41:57.987Z,4.20
2017-12-13T21:44:26.263Z,4.20
2017-12-13T21:46:54.516Z,4.20
2017-12-13T21:49:24.144Z,4.30
2017-12-13T21:51:52.432Z,4.20
2017-12-13T21:54:21.449Z,4.30
2017-12-13T21:56:49.670Z,4.30
2017-12-13T21:59:18.686Z,4.40
2017-12-13T22:01:46.945Z,4.40
2017-12-13T22:04:15.248Z,4.40
2017-12-13T22:06:43.463Z,4.40
2017-12-13T22:09:11.708Z,4.40
2017-12-13T22:11:39.955Z,4.40
2017-12-13T22:14:08.262Z,4.40
2017-12-13T22:16:36.521Z,4.40
2017-12-13T22:19:05.503Z,4.40
2017-12-13T22:21:34.550Z,4.40
2017-12-13T22:24:02.812Z,4.40
2017-12-13T22:26:31.076Z,4.40
2017-12-13T22:28:59.335Z,4.40
2017-12-13T22:31:27.600Z,4.40
2017-12-13T22:33:55.823Z,4.40
2017-12-13T22:36:24.074Z,4.40
2017-12-13T22:38:52.332Z,4.40
2017-12-13T22:41:20.602Z,4.40
2017-12-13T22:43:48.813Z,4.40
2017-12-13T22:46:17.065Z,4.40
2017-12-13T22:48:46.088Z,4.40
2017-12-13T22:51:14.354Z,4.40
2017-12-13T22:53:42.593Z,4.40
2017-12-13T22:56:12.311Z,4.40
2017-12-13T22:58:41.761Z,4.40
2017-12-13T23:01:10.028Z,4.40
2017-12-13T23:03:38.274Z,4.50
2017-12-13T23:06:06.580Z,4.50
2017-12-13T23:08:34.858Z,4.50
2017-12-13T23:11:03.181Z,4.50
2017-12-13T23:13:31.682Z,4.60
2017-12-13T23:15:59.932Z,4.60
2017-12-13T23:18:28.230Z,4.70
2017-12-13T23:20:56.438Z,4.70
2017-12-13T23:23:24.708Z,4.80
2017-12-13T23:25:53.052Z,4.80
2017-12-13T23:28:21.286Z,5.00
2017-12-13T23:30:49.593Z,5.00
2017-12-13T23:33:17.795Z,5.10
2017-12-13T23:35:46.834Z,5.20
2017-12-13T23:38:15.104Z,5.20
2017-12-13T23:40:43.342Z,5.30
2017-12-13T23:43:11.636Z,5.30
2017-12-13T23:45:39.919Z,5.30
2017-12-13T23:48:08.922Z,5.30
2017-12-13T23:50:37.181Z,5.30
2017-12-13T23:53:05.402Z,5.30
2017-12-13T23:55:33.680Z,5.40
2017-12-13T23:58:01.910Z,5.40
